ESNL

Lycksele Airport

Sweden
METAR ESNL 221750Z AUTO 15003KT 9999 NCD 05/M00 Q1012
Observed Flight Rules
Apr-22 @ 17:50 UTC (21 minutes ago) Visual Flight Rules
Wind Visibility Clouds
150° at 3 knots 10,000+ meters
  • Clear skies
Temperatures Readings
Current 5°C / 41°F
Dewpoint 0°C / 32°F
Humidity 70%
Altimeter 29.88" Hg
Pressure 1012 hPa
Elevation 214
METAR ESNL 221750Z AUTO 15003KT 9999 NCD 05/M00 Q1012
Observed Flight Rules
Apr-22 @ 17:50 UTC
(21 minutes ago)
VFR
Wind Visibility
150° at 3 knots 10,000+ meters
Clouds
  • Clear skies
Temperature Dewpoint
5°C / 41°F 0°C / 32°F
Humidity Altimeter Pressure
70% 29.88" Hg 1012 hPa